Ponteareas, Spain
Current Conditions -  °F | °C
As of 3:00 PM on Monday 20 Oct 2014 (Local Time) from LEVX Reporting Station
Clear Clear  
Wind Chill: 79°   Ceiling: Unl
Heat Index: 81°   Visibility: 6mi
Dew Point: 68°   Wind: 1mph
Humidity: 69%   Direction: NA
Pressure: 30.15"   Gusts: NA
Location:  42.18°N, 8.5°W
Report Text: LEVX 201300Z VRB01KT CAVOK 26/20 Q1021 NOSIG
Loading
Personal Weather Stations






























Interactive Weather Map
Tropical Storm Tracking
New forecast layout! Learn more

10-Day Weather Forecast

Advertisements
Track Severe Weather on mobile